Time;durP1;ratioP1;P1;durP2;ratioP2;P2;SDS_P1;SDS_P2;PMS_P1;PMS_P2;Temp;Humidity;BMP_temperature;BMP_pressure;BME280_temperature;BME280_humidity;BME280_pressure;Samples;Min_cycle;Max_cycle;Signal;HPM_P1;HPM_P2
2022/01/21 00:01:05;;;;;;;10.20;2.23;;;;;;;;;;5063024;28;20214;-78
2022/01/21 00:03:32;;;;;;;8.47;1.90;;;;;;;;;;5062793;28;20226;-77
2022/01/21 00:06:00;;;;;;;7.33;1.57;;;;;;;;;;5058231;28;20290;-77
2022/01/21 00:08:27;;;;;;;10.50;1.90;;;;;;;;;;5061150;28;20199;-77
2022/01/21 00:10:54;;;;;;;3.97;1.57;;;;;;;;;;5060825;28;20213;-77
2022/01/21 00:13:24;;;;;;;7.80;1.50;;;;;;;;;;5057939;28;20779;-77
2022/01/21 00:15:52;;;;;;;5.87;2.17;;;;;;;;;;5058467;28;20198;-77
2022/01/21 00:18:20;;;;;;;15.07;1.87;;;;;;;;;;5066832;28;20206;-77
2022/01/21 00:31:47;;;;;;;14.53;2.63;;;;;;;;;;5059046;28;20202;-78
2022/01/21 00:34:16;;;;;;;16.53;2.30;;;;;;;;;;5056344;28;20720;-78
2022/01/21 00:36:43;;;;;;;9.70;2.47;;;;;;;;;;5058561;28;20202;-78
2022/01/21 00:39:11;;;;;;;9.00;2.23;;;;;;;;;;5059788;28;20285;-78
2022/01/21 00:41:44;;;;;;;10.27;2.50;;;;;;;;;;5060656;28;20538;-78
2022/01/21 00:44:11;;;;;;;13.97;2.93;;;;;;;;;;5059796;28;20229;-78
2022/01/21 00:46:38;;;;;;;18.70;2.70;;;;;;;;;;5059744;28;20203;-78
2022/01/21 00:49:06;;;;;;;20.20;2.60;;;;;;;;;;5057513;28;20645;-78
2022/01/21 00:51:34;;;;;;;14.03;3.10;;;;;;;;;;5058147;28;20738;-78
2022/01/21 00:54:01;;;;;;;11.47;2.83;;;;;;;;;;5055821;28;20233;-78
2022/01/21 00:56:28;;;;;;;10.27;3.13;;;;;;;;;;5058034;28;20297;-78
2022/01/21 00:58:56;;;;;;;20.13;3.10;;;;;;;;;;5059800;28;20194;-78
2022/01/21 01:01:23;;;;;;;15.20;2.87;;;;;;;;;;5057439;28;20215;-78
2022/01/21 01:03:50;;;;;;;12.27;3.43;;;;;;;;;;5056265;28;20246;-78
2022/01/21 01:06:17;;;;;;;6.97;2.60;;;;;;;;;;5059271;28;20451;-77
2022/01/21 01:08:48;;;;;;;11.40;2.60;;;;;;;;;;5058322;28;20532;-78
2022/01/21 01:11:22;;;;;;;17.60;3.20;;;;;;;;;;5059870;28;20480;-78
2022/01/21 01:22:00;;;;;;;16.83;2.90;;;;;;;;;;5055454;28;20288;-78
2022/01/21 01:27:41;;;;;;;10.57;3.47;;;;;;;;;;5038010;28;20337;-78
2022/01/21 01:30:09;;;;;;;14.90;3.23;;;;;;;;;;5056093;28;20243;-77
2022/01/21 01:32:36;;;;;;;9.90;3.27;;;;;;;;;;5055531;28;20717;-77
2022/01/21 01:35:04;;;;;;;14.77;4.27;;;;;;;;;;5056333;28;20279;-77
2022/01/21 01:37:45;;;;;;;12.47;3.47;;;;;;;;;;5056775;28;20200;-77
2022/01/21 01:40:20;;;;;;;10.60;2.90;;;;;;;;;;5053279;28;20487;-77
2022/01/21 01:51:02;;;;;;;15.40;2.87;;;;;;;;;;5055087;28;20206;-77
2022/01/21 01:53:31;;;;;;;10.47;2.67;;;;;;;;;;5056162;28;20317;-77
2022/01/21 01:56:01;;;;;;;10.57;2.90;;;;;;;;;;5056867;28;20245;-78
2022/01/21 01:58:28;;;;;;;15.30;2.97;;;;;;;;;;5057297;28;20199;-77
2022/01/21 02:00:56;;;;;;;13.47;3.47;;;;;;;;;;5055860;28;20407;-78
2022/01/21 02:03:24;;;;;;;13.03;2.60;;;;;;;;;;5052529;28;20218;-77
2022/01/21 02:05:51;;;;;;;18.67;3.23;;;;;;;;;;5059206;28;20206;-78
2022/01/21 02:08:18;;;;;;;12.60;3.03;;;;;;;;;;5054821;28;20449;-78
2022/01/21 02:10:46;;;;;;;20.50;3.50;;;;;;;;;;5053202;28;20286;-77
2022/01/21 02:13:23;;;;;;;18.17;3.60;;;;;;;;;;5057293;28;20300;-77
2022/01/21 02:16:01;;;;;;;14.77;3.30;;;;;;;;;;5056867;28;20210;-77
2022/01/21 02:21:36;;;;;;;14.93;3.67;;;;;;;;;;5053203;28;20708;-77
2022/01/21 02:24:05;;;;;;;14.30;3.70;;;;;;;;;;5055281;28;20219;-77
2022/01/21 02:26:32;;;;;;;17.70;3.23;;;;;;;;;;5055766;28;20571;-77
2022/01/21 02:29:01;;;;;;;15.50;3.10;;;;;;;;;;5056701;28;20224;-77
2022/01/21 02:31:29;;;;;;;12.97;3.10;;;;;;;;;;5057749;28;20569;-77
2022/01/21 02:33:56;;;;;;;10.07;2.70;;;;;;;;;;5056503;28;20214;-77
2022/01/21 02:36:25;;;;;;;12.27;3.53;;;;;;;;;;5058821;28;20959;-77
2022/01/21 02:38:52;;;;;;;17.83;3.83;;;;;;;;;;5058453;28;20493;-77
2022/01/21 02:41:22;;;;;;;11.23;3.60;;;;;;;;;;5057226;28;20262;-77
2022/01/21 02:43:50;;;;;;;13.47;4.27;;;;;;;;;;5055752;28;20229;-77
2022/01/21 02:46:17;;;;;;;14.07;3.90;;;;;;;;;;5055184;28;20319;-77
2022/01/21 02:48:45;;;;;;;14.57;4.10;;;;;;;;;;5056468;28;20461;-77
2022/01/21 02:51:12;;;;;;;13.57;4.30;;;;;;;;;;5055937;28;20213;-77
2022/01/21 02:56:23;;;;;;;17.83;4.40;;;;;;;;;;5053467;28;20456;-76
2022/01/21 02:58:50;;;;;;;13.70;4.33;;;;;;;;;;5054705;28;20591;-77
2022/01/21 03:01:18;;;;;;;16.07;4.70;;;;;;;;;;5055799;28;20842;-77
2022/01/21 03:03:46;;;;;;;16.70;4.70;;;;;;;;;;5057939;28;20728;-77
2022/01/21 03:06:15;;;;;;;17.47;4.40;;;;;;;;;;5056726;28;20528;-77
2022/01/21 03:08:44;;;;;;;19.47;4.50;;;;;;;;;;5053243;28;20328;-77
2022/01/21 03:11:12;;;;;;;18.57;4.53;;;;;;;;;;5055449;28;20199;-78
2022/01/21 03:13:39;;;;;;;23.37;4.57;;;;;;;;;;5053716;28;20247;-77
2022/01/21 03:16:06;;;;;;;14.27;4.47;;;;;;;;;;5058930;28;20281;-77
2022/01/21 03:18:33;;;;;;;23.13;5.87;;;;;;;;;;5057095;28;20576;-77
2022/01/21 03:21:01;;;;;;;18.13;4.63;;;;;;;;;;5059446;28;20468;-77
2022/01/21 03:23:29;;;;;;;11.17;4.10;;;;;;;;;;5054349;28;20313;-78
2022/01/21 03:25:58;;;;;;;12.63;4.57;;;;;;;;;;5058877;28;20292;-77
2022/01/21 03:28:25;;;;;;;15.63;5.07;;;;;;;;;;5062046;28;20788;-77
2022/01/21 03:30:56;;;;;;;17.33;4.93;;;;;;;;;;5057155;28;20210;-77
2022/01/21 03:33:23;;;;;;;13.53;5.03;;;;;;;;;;5057489;28;20223;-77
2022/01/21 03:35:54;;;;;;;15.83;5.63;;;;;;;;;;5059093;28;20230;-77
2022/01/21 03:38:25;;;;;;;12.43;5.10;;;;;;;;;;5057056;28;20211;-77
2022/01/21 03:40:53;;;;;;;19.83;5.03;;;;;;;;;;5068685;28;20207;-77
2022/01/21 03:43:22;;;;;;;16.07;5.37;;;;;;;;;;5068354;28;20214;-77
2022/01/21 03:45:49;;;;;;;13.17;4.60;;;;;;;;;;5070615;28;20464;-77
2022/01/21 03:48:17;;;;;;;18.63;4.63;;;;;;;;;;5069118;28;20222;-77
2022/01/21 03:50:45;;;;;;;15.57;5.07;;;;;;;;;;5066285;28;20475;-77
2022/01/21 03:53:12;;;;;;;19.97;5.73;;;;;;;;;;5070468;28;20241;-77
2022/01/21 03:55:42;;;;;;;16.10;5.60;;;;;;;;;;5070477;28;20206;-77
2022/01/21 03:58:10;;;;;;;18.27;5.33;;;;;;;;;;5069655;28;20206;-77
2022/01/21 04:00:40;;;;;;;16.90;5.20;;;;;;;;;;5067946;28;20544;-77
2022/01/21 04:03:07;;;;;;;18.03;5.27;;;;;;;;;;5069485;28;20218;-77
2022/01/21 04:05:34;;;;;;;19.23;5.40;;;;;;;;;;5071505;28;20535;-76
2022/01/21 04:08:02;;;;;;;21.33;5.93;;;;;;;;;;5066506;28;20954;-77
2022/01/21 04:10:29;;;;;;;16.80;5.50;;;;;;;;;;5068197;28;20206;-77
2022/01/21 04:12:57;;;;;;;19.53;6.00;;;;;;;;;;5071441;28;20479;-78
2022/01/21 04:15:24;;;;;;;16.07;5.33;;;;;;;;;;5069902;28;20657;-77
2022/01/21 04:17:52;;;;;;;20.83;6.97;;;;;;;;;;5068571;28;20456;-77
2022/01/21 04:20:20;;;;;;;17.40;6.07;;;;;;;;;;5070279;28;20460;-77
2022/01/21 04:22:47;;;;;;;19.47;6.27;;;;;;;;;;5070634;28;20218;-78
2022/01/21 04:25:14;;;;;;;21.67;6.23;;;;;;;;;;5070935;28;20559;-77
2022/01/21 04:27:41;;;;;;;17.93;6.63;;;;;;;;;;5067504;28;20270;-78
2022/01/21 04:30:10;;;;;;;17.40;6.23;;;;;;;;;;5064290;28;20578;-78
2022/01/21 04:32:37;;;;;;;21.30;7.03;;;;;;;;;;5066253;28;20297;-77
2022/01/21 04:35:06;;;;;;;28.23;6.70;;;;;;;;;;5065603;28;20200;-78
2022/01/21 04:37:34;;;;;;;17.17;6.57;;;;;;;;;;5067253;28;20221;-78
2022/01/21 04:40:07;;;;;;;22.67;6.93;;;;;;;;;;5066467;28;20458;-78
2022/01/21 04:48:15;;;;;;;18.00;5.70;;;;;;;;;;5069316;28;20448;-77
2022/01/21 04:50:53;;;;;;;26.33;6.87;;;;;;;;;;5069874;28;20217;-78
2022/01/21 04:53:21;;;;;;;27.57;7.00;;;;;;;;;;5068827;28;20218;-77
2022/01/21 04:55:48;;;;;;;28.87;7.47;;;;;;;;;;5066142;28;20577;-77
2022/01/21 04:58:15;;;;;;;18.90;7.37;;;;;;;;;;5066481;28;20283;-77
2022/01/21 05:00:43;;;;;;;22.50;7.80;;;;;;;;;;5064308;28;20554;-77
2022/01/21 05:03:11;;;;;;;26.00;7.27;;;;;;;;;;5054424;28;20361;-77
2022/01/21 05:05:38;;;;;;;25.33;7.47;;;;;;;;;;5059597;28;20464;-77
2022/01/21 05:08:11;;;;;;;30.73;7.30;;;;;;;;;;5055048;28;20711;-77
2022/01/21 05:10:38;;;;;;;25.83;7.40;;;;;;;;;;5056089;28;20461;-77
2022/01/21 05:13:07;;;;;;;20.50;7.33;;;;;;;;;;5056380;28;20306;-77
2022/01/21 05:15:58;;;;;;;20.13;7.30;;;;;;;;;;5054692;28;20605;-77
2022/01/21 05:18:26;;;;;;;21.47;7.23;;;;;;;;;;5058611;28;20263;-77
2022/01/21 05:20:54;;;;;;;20.30;7.23;;;;;;;;;;5056584;28;20209;-77
2022/01/21 05:23:23;;;;;;;31.93;8.00;;;;;;;;;;5058348;28;21106;-77
2022/01/21 05:25:50;;;;;;;25.70;6.90;;;;;;;;;;5058316;28;20194;-77
2022/01/21 05:28:17;;;;;;;22.27;7.77;;;;;;;;;;5060023;28;20241;-77
2022/01/21 05:30:44;;;;;;;24.10;7.07;;;;;;;;;;5061797;28;20285;-77
2022/01/21 05:33:12;;;;;;;25.67;7.20;;;;;;;;;;5058876;28;20338;-76
2022/01/21 05:35:39;;;;;;;23.17;7.93;;;;;;;;;;5063902;28;20286;-76
2022/01/21 05:38:06;;;;;;;27.93;7.07;;;;;;;;;;5061062;28;20194;-77
2022/01/21 05:40:36;;;;;;;20.80;7.87;;;;;;;;;;5061161;28;20294;-77
2022/01/21 05:43:04;;;;;;;19.33;7.30;;;;;;;;;;5060095;28;20258;-77
2022/01/21 05:48:16;;;;;;;20.07;6.97;;;;;;;;;;5060456;28;20216;-76
2022/01/21 05:50:45;;;;;;;29.97;7.13;;;;;;;;;;5056001;28;20210;-77
2022/01/21 05:53:13;;;;;;;29.00;7.87;;;;;;;;;;5058957;28;20313;-77
2022/01/21 05:55:43;;;;;;;28.83;8.63;;;;;;;;;;5062477;28;20248;-77
2022/01/21 05:58:11;;;;;;;38.77;9.37;;;;;;;;;;5061914;28;20629;-77
2022/01/21 06:00:38;;;;;;;34.90;8.90;;;;;;;;;;5059520;28;20581;-77
2022/01/21 06:03:06;;;;;;;27.37;7.90;;;;;;;;;;5062307;28;20301;-77
2022/01/21 06:05:34;;;;;;;26.27;8.37;;;;;;;;;;5056650;28;20315;-76
2022/01/21 06:08:02;;;;;;;27.73;7.93;;;;;;;;;;5060946;28;20682;-77
2022/01/21 06:10:30;;;;;;;26.00;8.67;;;;;;;;;;5061064;28;20296;-77
2022/01/21 06:12:58;;;;;;;24.30;8.17;;;;;;;;;;5062794;28;20246;-77
2022/01/21 06:15:26;;;;;;;26.23;7.57;;;;;;;;;;5057936;28;20209;-76
2022/01/21 06:17:53;;;;;;;24.23;7.97;;;;;;;;;;5055470;28;20309;-77
2022/01/21 06:20:20;;;;;;;21.93;8.07;;;;;;;;;;5059446;28;20234;-76
2022/01/21 06:22:48;;;;;;;25.47;9.20;;;;;;;;;;5059211;28;20227;-77
2022/01/21 06:25:15;;;;;;;23.80;8.03;;;;;;;;;;5052021;28;20202;-77
2022/01/21 06:27:45;;;;;;;28.00;8.80;;;;;;;;;;5054129;28;20295;-77
2022/01/21 06:30:14;;;;;;;24.30;8.27;;;;;;;;;;5057599;28;20587;-77
2022/01/21 06:32:41;;;;;;;26.70;8.90;;;;;;;;;;5051928;28;20473;-76
2022/01/21 06:35:09;;;;;;;27.43;9.03;;;;;;;;;;5050036;28;20581;-76
2022/01/21 06:37:37;;;;;;;22.23;10.03;;;;;;;;;;5061339;28;20206;-76
2022/01/21 06:40:04;;;;;;;30.80;9.30;;;;;;;;;;5060581;28;20203;-76
2022/01/21 06:42:32;;;;;;;19.23;8.10;;;;;;;;;;5056935;28;20317;-76
2022/01/21 06:45:00;;;;;;;23.30;9.43;;;;;;;;;;5058926;28;20210;-78
2022/01/21 06:47:29;;;;;;;30.30;9.63;;;;;;;;;;5059657;28;21251;-78
2022/01/21 06:49:59;;;;;;;32.73;10.13;;;;;;;;;;5062992;28;20233;-78
2022/01/21 06:52:26;;;;;;;31.83;9.90;;;;;;;;;;5063291;28;20229;-77
2022/01/21 06:54:53;;;;;;;28.37;9.37;;;;;;;;;;5063867;28;20210;-77
2022/01/21 06:57:20;;;;;;;26.17;9.30;;;;;;;;;;5068085;28;20236;-78
2022/01/21 06:59:48;;;;;;;23.73;9.13;;;;;;;;;;5062956;28;20238;-77
2022/01/21 07:02:17;;;;;;;25.43;9.23;;;;;;;;;;5060797;28;20241;-78
2022/01/21 07:04:46;;;;;;;21.13;9.17;;;;;;;;;;5065060;28;20210;-76
2022/01/21 07:07:14;;;;;;;26.10;9.57;;;;;;;;;;5058668;28;20210;-78
2022/01/21 07:09:41;;;;;;;28.93;10.07;;;;;;;;;;5065315;28;20594;-78
2022/01/21 07:12:09;;;;;;;24.97;9.87;;;;;;;;;;5067694;28;20696;-77
2022/01/21 07:14:36;;;;;;;28.83;9.90;;;;;;;;;;5066197;28;20226;-78
2022/01/21 07:17:04;;;;;;;34.00;10.57;;;;;;;;;;5062060;28;20605;-77
2022/01/21 07:19:31;;;;;;;25.67;10.17;;;;;;;;;;5064126;28;20212;-78
2022/01/21 07:22:00;;;;;;;25.23;9.23;;;;;;;;;;5061696;28;20201;-77
2022/01/21 07:24:27;;;;;;;28.33;9.80;;;;;;;;;;5063547;28;20226;-77
2022/01/21 07:26:54;;;;;;;28.83;9.90;;;;;;;;;;5064085;28;20618;-77
2022/01/21 07:29:21;;;;;;;27.03;9.70;;;;;;;;;;5062864;28;20717;-77
2022/01/21 07:31:52;;;;;;;26.77;9.80;;;;;;;;;;5066889;28;20748;-77
2022/01/21 07:34:19;;;;;;;30.63;10.23;;;;;;;;;;5061432;28;20488;-77
2022/01/21 07:36:47;;;;;;;29.27;10.13;;;;;;;;;;5067300;28;20313;-76
2022/01/21 07:39:15;;;;;;;30.67;10.40;;;;;;;;;;5065331;28;20203;-77
2022/01/21 07:41:42;;;;;;;27.77;10.37;;;;;;;;;;5067029;28;20195;-78
2022/01/21 07:44:10;;;;;;;24.87;10.37;;;;;;;;;;5062358;28;20591;-77
2022/01/21 07:46:37;;;;;;;28.80;10.03;;;;;;;;;;5066660;28;20291;-77
2022/01/21 07:49:04;;;;;;;29.10;10.03;;;;;;;;;;5063664;28;20211;-78
2022/01/21 07:51:31;;;;;;;22.87;9.37;;;;;;;;;;5067134;28;20214;-77
2022/01/21 07:53:58;;;;;;;26.70;9.90;;;;;;;;;;5065921;28;20236;-78
2022/01/21 07:56:27;;;;;;;25.33;9.80;;;;;;;;;;5065307;28;20223;-78
2022/01/21 07:58:56;;;;;;;22.13;9.43;;;;;;;;;;5064083;28;20245;-78
2022/01/21 08:01:23;;;;;;;21.50;8.87;;;;;;;;;;5059751;28;20203;-77
2022/01/21 08:03:50;;;;;;;23.77;8.87;;;;;;;;;;5063354;28;20222;-77
2022/01/21 08:06:18;;;;;;;21.63;8.70;;;;;;;;;;5065646;28;20206;-78
2022/01/21 08:08:45;;;;;;;25.47;9.03;;;;;;;;;;5060737;28;20630;-77
2022/01/21 08:11:12;;;;;;;23.67;8.20;;;;;;;;;;5064521;28;20210;-77
2022/01/21 08:13:40;;;;;;;17.87;7.90;;;;;;;;;;5064148;28;20244;-78
2022/01/21 08:16:08;;;;;;;21.87;7.97;;;;;;;;;;5061619;28;20289;-78
2022/01/21 08:18:38;;;;;;;22.57;8.60;;;;;;;;;;5066108;28;20242;-78
2022/01/21 08:21:06;;;;;;;25.07;9.23;;;;;;;;;;5062322;28;20214;-78
2022/01/21 08:23:33;;;;;;;24.70;8.53;;;;;;;;;;5058468;28;20715;-77
2022/01/21 08:26:00;;;;;;;19.17;8.07;;;;;;;;;;5064116;28;20207;-77
2022/01/21 08:28:27;;;;;;;19.10;8.33;;;;;;;;;;5063092;28;20293;-77
2022/01/21 08:30:56;;;;;;;27.73;8.70;;;;;;;;;;5059917;28;20286;-78
2022/01/21 08:33:24;;;;;;;19.67;8.77;;;;;;;;;;5061485;28;20305;-77
2022/01/21 08:35:51;;;;;;;17.30;7.97;;;;;;;;;;5065667;28;20209;-77
2022/01/21 08:38:21;;;;;;;20.43;8.90;;;;;;;;;;5062059;28;20209;-78
2022/01/21 08:40:48;;;;;;;27.53;8.57;;;;;;;;;;5065819;28;20198;-78
2022/01/21 08:43:16;;;;;;;21.80;8.53;;;;;;;;;;5063221;28;20222;-78
2022/01/21 08:45:43;;;;;;;19.30;6.63;;;;;;;;;;5062657;28;20297;-77
2022/01/21 08:48:13;;;;;;;20.20;7.43;;;;;;;;;;5063422;28;20203;-77
2022/01/21 08:50:41;;;;;;;19.73;8.13;;;;;;;;;;5059261;28;20310;-78
2022/01/21 08:53:35;;;;;;;21.60;9.17;;;;;;;;;;5062428;28;20313;-77
2022/01/21 08:55:57;;;;;;;24.57;9.03;;;;;;;;;;5057228;28;20196;-78
2022/01/21 08:58:26;;;;;;;25.60;9.13;;;;;;;;;;5061421;28;20198;-78
2022/01/21 09:00:54;;;;;;;28.33;9.43;;;;;;;;;;5058090;28;20224;-77
2022/01/21 09:03:23;;;;;;;27.07;9.47;;;;;;;;;;5061138;28;20767;-78
2022/01/21 09:05:51;;;;;;;27.63;9.63;;;;;;;;;;5053624;28;20209;-78
2022/01/21 09:08:23;;;;;;;26.23;9.27;;;;;;;;;;5055122;28;20579;-78
2022/01/21 09:10:50;;;;;;;30.20;9.97;;;;;;;;;;5060084;28;20224;-78
2022/01/21 09:13:17;;;;;;;27.20;10.90;;;;;;;;;;5059298;28;20608;-78
2022/01/21 09:15:44;;;;;;;32.67;10.10;;;;;;;;;;5060029;28;20297;-78
2022/01/21 09:18:17;;;;;;;28.90;10.07;;;;;;;;;;5054826;28;20329;-79
2022/01/21 09:20:46;;;;;;;27.70;9.77;;;;;;;;;;5062556;28;20202;-78
2022/01/21 09:23:13;;;;;;;31.30;11.77;;;;;;;;;;5063670;28;20228;-78
2022/01/21 09:25:41;;;;;;;26.00;10.50;;;;;;;;;;5062751;28;20590;-78
2022/01/21 09:28:08;;;;;;;21.33;8.97;;;;;;;;;;5064290;28;20590;-77
2022/01/21 09:30:35;;;;;;;26.67;10.50;;;;;;;;;;5061782;28;20207;-78
2022/01/21 09:33:03;;;;;;;24.07;10.50;;;;;;;;;;5061918;28;20272;-78
2022/01/21 09:35:30;;;;;;;24.40;10.07;;;;;;;;;;5060924;28;20209;-78
2022/01/21 09:37:59;;;;;;;24.13;9.77;;;;;;;;;;5060867;28;20201;-79
2022/01/21 09:40:31;;;;;;;24.77;9.90;;;;;;;;;;5058038;28;20339;-78
2022/01/21 09:42:58;;;;;;;23.83;9.57;;;;;;;;;;5063182;28;20236;-78
2022/01/21 09:45:27;;;;;;;17.97;8.70;;;;;;;;;;5057881;28;20293;-78
2022/01/21 09:47:57;;;;;;;19.17;9.00;;;;;;;;;;5059562;28;20234;-78
2022/01/21 09:50:25;;;;;;;22.67;9.37;;;;;;;;;;5060141;28;20657;-79
2022/01/21 09:52:54;;;;;;;21.23;8.80;;;;;;;;;;5058621;28;20726;-77
2022/01/21 09:55:23;;;;;;;24.20;8.77;;;;;;;;;;5061121;28;20203;-77
2022/01/21 09:57:51;;;;;;;19.60;7.63;;;;;;;;;;5059569;28;20215;-77
2022/01/21 10:00:19;;;;;;;17.60;7.67;;;;;;;;;;5063443;28;20226;-77
2022/01/21 10:02:47;;;;;;;20.07;7.87;;;;;;;;;;5064132;28;20494;-77
2022/01/21 10:05:14;;;;;;;20.67;8.50;;;;;;;;;;5060502;28;20285;-78
2022/01/21 10:07:42;;;;;;;20.73;8.97;;;;;;;;;;5059721;28;20269;-78
2022/01/21 10:10:09;;;;;;;18.63;7.83;;;;;;;;;;5060629;28;21196;-78
2022/01/21 10:12:39;;;;;;;20.83;8.80;;;;;;;;;;5062700;28;20237;-78
2022/01/21 10:15:08;;;;;;;20.20;9.27;;;;;;;;;;5066875;28;20217;-78
2022/01/21 10:17:35;;;;;;;18.73;8.97;;;;;;;;;;5064652;28;20249;-78
2022/01/21 10:20:13;;;;;;;22.63;9.77;;;;;;;;;;5065341;28;20201;-79
2022/01/21 10:22:40;;;;;;;23.83;9.70;;;;;;;;;;5060925;28;20226;-78
2022/01/21 10:25:12;;;;;;;25.30;10.00;;;;;;;;;;5065606;28;20315;-78
2022/01/21 10:27:41;;;;;;;22.07;9.37;;;;;;;;;;5068087;28;20205;-79
2022/01/21 10:30:19;;;;;;;19.90;9.40;;;;;;;;;;5068342;28;20289;-79
2022/01/21 10:32:46;;;;;;;22.57;9.90;;;;;;;;;;5067698;28;20232;-78
2022/01/21 10:35:20;;;;;;;28.03;9.73;;;;;;;;;;5066202;28;20463;-78
2022/01/21 10:37:48;;;;;;;30.57;11.50;;;;;;;;;;5065333;28;20209;-79
2022/01/21 10:40:16;;;;;;;34.00;12.00;;;;;;;;;;5066366;28;20257;-78
2022/01/21 10:42:45;;;;;;;27.33;11.17;;;;;;;;;;5066114;28;20220;-79
2022/01/21 10:45:12;;;;;;;25.30;11.30;;;;;;;;;;5065444;28;20313;-79
2022/01/21 10:47:40;;;;;;;29.30;11.53;;;;;;;;;;5064889;28;20210;-78
2022/01/21 10:50:08;;;;;;;29.47;10.77;;;;;;;;;;5064662;28;20662;-79
2022/01/21 10:52:37;;;;;;;29.07;10.03;;;;;;;;;;5065864;28;20307;-78
2022/01/21 10:55:06;;;;;;;25.30;9.70;;;;;;;;;;5063092;28;20203;-79
2022/01/21 10:57:36;;;;;;;23.50;9.53;;;;;;;;;;5066061;28;20681;-78
2022/01/21 11:00:06;;;;;;;21.40;9.47;;;;;;;;;;5064393;28;20225;-79
2022/01/21 11:02:35;;;;;;;22.13;9.37;;;;;;;;;;5068354;28;20844;-79
2022/01/21 11:05:05;;;;;;;40.80;18.20;;;;;;;;;;5064189;28;21053;-79
2022/01/21 11:07:47;;;;;;;23.10;9.87;;;;;;;;;;5062895;28;21175;-78
2022/01/21 11:10:33;;;;;;;22.73;9.03;;;;;;;;;;5063986;28;20206;-78
2022/01/21 11:13:00;;;;;;;24.93;9.97;;;;;;;;;;5066352;28;20312;-78
2022/01/21 11:15:39;;;;;;;27.87;9.87;;;;;;;;;;5065166;28;20230;-79
2022/01/21 11:18:08;;;;;;;30.60;10.37;;;;;;;;;;5065596;28;20209;-78
2022/01/21 11:20:38;;;;;;;23.37;9.73;;;;;;;;;;5066273;28;20218;-79
2022/01/21 11:23:06;;;;;;;26.17;10.50;;;;;;;;;;5064848;28;20580;-79
2022/01/21 11:25:42;;;;;;;30.13;10.80;;;;;;;;;;5065946;28;20782;-77
2022/01/21 11:28:09;;;;;;;25.83;10.07;;;;;;;;;;5067969;28;20202;-79
2022/01/21 11:30:38;;;;;;;22.07;9.27;;;;;;;;;;5066331;28;20767;-79
2022/01/21 11:33:05;;;;;;;26.20;9.43;;;;;;;;;;5064464;28;20278;-79
2022/01/21 11:35:32;;;;;;;28.23;11.90;;;;;;;;;;5066648;28;20213;-79
2022/01/21 11:38:00;;;;;;;30.10;9.13;;;;;;;;;;5069522;28;20202;-78
2022/01/21 11:40:27;;;;;;;23.03;9.40;;;;;;;;;;5068128;28;20298;-79
2022/01/21 11:42:55;;;;;;;24.20;8.77;;;;;;;;;;5063711;28;20226;-78
2022/01/21 11:45:32;;;;;;;24.50;10.33;;;;;;;;;;5064199;28;20225;-79
2022/01/21 11:48:49;;;;;;;28.53;10.93;;;;;;;;;;5067345;28;20225;-79
2022/01/21 11:50:55;;;;;;;27.33;10.10;;;;;;;;;;5064485;28;20631;-79
2022/01/21 11:53:37;;;;;;;34.50;15.07;;;;;;;;;;5070742;28;20241;-79
2022/01/21 11:56:25;;;;;;;22.73;10.10;;;;;;;;;;5064714;28;20203;-79
2022/01/21 11:59:05;;;;;;;26.00;10.97;;;;;;;;;;5064372;28;20756;-79
2022/01/21 12:01:36;;;;;;;23.07;10.20;;;;;;;;;;5065444;28;20233;-78
2022/01/21 12:04:05;;;;;;;29.00;11.00;;;;;;;;;;5064623;28;20228;-79
2022/01/21 12:06:33;;;;;;;33.17;10.93;;;;;;;;;;5063251;28;20649;-78
2022/01/21 12:09:02;;;;;;;36.13;12.90;;;;;;;;;;5064352;28;20201;-79
2022/01/21 12:11:35;;;;;;;43.03;17.20;;;;;;;;;;5066799;28;20202;-79
2022/01/21 12:14:04;;;;;;;26.67;10.50;;;;;;;;;;5068129;28;20278;-78
2022/01/21 12:16:51;;;;;;;27.57;11.03;;;;;;;;;;5064056;28;20679;-79
2022/01/21 12:19:28;;;;;;;30.60;10.83;;;;;;;;;;5063811;28;20230;-79
2022/01/21 12:21:56;;;;;;;25.30;10.13;;;;;;;;;;5068817;28;20206;-79
2022/01/21 12:24:41;;;;;;;30.00;11.23;;;;;;;;;;5066460;28;20246;-78
2022/01/21 12:27:09;;;;;;;27.53;10.60;;;;;;;;;;5047409;28;20249;-78
2022/01/21 12:29:36;;;;;;;28.00;10.77;;;;;;;;;;5064690;28;20610;-78
2022/01/21 12:32:12;;;;;;;31.33;10.00;;;;;;;;;;5064946;28;20207;-78
2022/01/21 12:34:58;;;;;;;28.97;11.20;;;;;;;;;;5061854;28;20194;-78
2022/01/21 12:37:39;;;;;;;26.03;10.23;;;;;;;;;;5066774;28;20245;-78
2022/01/21 12:40:07;;;;;;;27.30;11.20;;;;;;;;;;5065415;28;20309;-78
2022/01/21 12:42:36;;;;;;;29.73;11.30;;;;;;;;;;5065009;28;20301;-78
2022/01/21 12:45:21;;;;;;;24.17;10.37;;;;;;;;;;5066073;28;20252;-78
2022/01/21 12:47:49;;;;;;;33.43;10.63;;;;;;;;;;5060207;28;20206;-78
2022/01/21 12:50:25;;;;;;;25.57;10.67;;;;;;;;;;5065252;28;20317;-79
2022/01/21 12:52:55;;;;;;;27.27;11.13;;;;;;;;;;5061941;28;20226;-78
2022/01/21 12:58:07;;;;;;;21.53;10.20;;;;;;;;;;5066658;28;20190;-78
2022/01/21 13:00:35;;;;;;;30.23;10.77;;;;;;;;;;5062981;28;20593;-79
2022/01/21 13:03:06;;;;;;;24.00;10.53;;;;;;;;;;5066304;28;20225;-79
2022/01/21 13:05:40;;;;;;;25.73;10.70;;;;;;;;;;5065075;28;20313;-78
2022/01/21 13:08:16;;;;;;;29.43;10.67;;;;;;;;;;5066775;28;20676;-79
2022/01/21 13:10:43;;;;;;;33.43;10.73;;;;;;;;;;5064952;28;20233;-79
2022/01/21 13:13:22;;;;;;;31.87;10.83;;;;;;;;;;5062346;28;20720;-78
2022/01/21 13:15:50;;;;;;;25.93;10.83;;;;;;;;;;5066241;28;20198;-78
2022/01/21 13:18:18;;;;;;;31.73;11.30;;;;;;;;;;5063544;28;20281;-78
2022/01/21 13:20:46;;;;;;;33.73;11.67;;;;;;;;;;5061887;28;20560;-78
2022/01/21 13:23:30;;;;;;;28.40;10.90;;;;;;;;;;5061967;28;20305;-78
2022/01/21 13:26:10;;;;;;;33.23;11.67;;;;;;;;;;5063874;28;20601;-77
2022/01/21 13:28:37;;;;;;;32.17;10.67;;;;;;;;;;5062028;28;20638;-78
2022/01/21 13:31:05;;;;;;;31.90;12.20;;;;;;;;;;5063568;28;20210;-78
2022/01/21 13:33:32;;;;;;;41.80;12.07;;;;;;;;;;5060208;28;20319;-78
2022/01/21 13:35:59;;;;;;;33.00;12.23;;;;;;;;;;5064073;28;20289;-78
2022/01/21 13:38:29;;;;;;;41.40;12.93;;;;;;;;;;5060270;28;20230;-78
2022/01/21 13:40:57;;;;;;;30.53;11.20;;;;;;;;;;5063079;28;20284;-77
2022/01/21 13:43:26;;;;;;;37.70;12.40;;;;;;;;;;5060997;28;20309;-78
2022/01/21 13:45:59;;;;;;;30.77;12.43;;;;;;;;;;5062803;28;20225;-78
2022/01/21 13:48:26;;;;;;;31.90;11.90;;;;;;;;;;5060891;28;20659;-78
2022/01/21 13:50:54;;;;;;;34.20;13.17;;;;;;;;;;5066223;28;20746;-78
2022/01/21 13:53:22;;;;;;;32.80;12.20;;;;;;;;;;5060285;28;20234;-78
2022/01/21 13:55:53;;;;;;;33.07;11.83;;;;;;;;;;5061866;28;20210;-78
2022/01/21 13:58:21;;;;;;;35.53;13.27;;;;;;;;;;5060224;28;20669;-77
2022/01/21 14:00:50;;;;;;;40.63;13.83;;;;;;;;;;5062176;28;20214;-78
2022/01/21 14:03:19;;;;;;;37.10;13.03;;;;;;;;;;5057907;28;20228;-78
2022/01/21 14:05:53;;;;;;;42.87;12.80;;;;;;;;;;5063390;28;20293;-79
2022/01/21 14:08:25;;;;;;;42.03;16.37;;;;;;;;;;5058593;28;20205;-79
2022/01/21 14:11:05;;;;;;;35.07;12.70;;;;;;;;;;5058187;28;20203;-79
2022/01/21 14:13:33;;;;;;;39.87;12.53;;;;;;;;;;5057536;28;20225;-77
2022/01/21 14:16:03;;;;;;;31.47;12.03;;;;;;;;;;5060952;28;20640;-78
2022/01/21 14:18:31;;;;;;;43.53;15.67;;;;;;;;;;5062016;28;20290;-78
2022/01/21 14:21:06;;;;;;;37.20;13.83;;;;;;;;;;5061656;28;20227;-79
2022/01/21 14:23:37;;;;;;;50.27;14.17;;;;;;;;;;5060267;28;20221;-78
2022/01/21 14:26:05;;;;;;;61.60;24.73;;;;;;;;;;5063567;28;20226;-79
2022/01/21 14:28:43;;;;;;;57.77;21.27;;;;;;;;;;5060565;28;20293;-79
2022/01/21 14:31:26;;;;;;;34.87;13.23;;;;;;;;;;5060850;28;20199;-79
2022/01/21 14:33:56;;;;;;;34.33;12.93;;;;;;;;;;5061942;28;20225;-79
2022/01/21 14:36:23;;;;;;;47.50;15.27;;;;;;;;;;5071092;28;20233;-78
2022/01/21 14:38:51;;;;;;;41.40;14.57;;;;;;;;;;5070701;28;20301;-78
2022/01/21 14:41:19;;;;;;;37.40;13.20;;;;;;;;;;5069691;28;20715;-78
2022/01/21 14:43:56;;;;;;;33.33;12.60;;;;;;;;;;5061645;28;20404;-78
2022/01/21 14:46:25;;;;;;;33.87;12.37;;;;;;;;;;5066454;28;20305;-78
2022/01/21 14:48:59;;;;;;;37.10;11.90;;;;;;;;;;5059365;28;20209;-78
2022/01/21 14:51:34;;;;;;;38.67;14.23;;;;;;;;;;5059734;28;20305;-78
2022/01/21 14:54:14;;;;;;;38.87;13.93;;;;;;;;;;5062532;28;20279;-78
2022/01/21 14:56:44;;;;;;;34.47;13.37;;;;;;;;;;5060956;28;20205;-78
2022/01/21 14:59:15;;;;;;;27.00;12.80;;;;;;;;;;5061365;28;20199;-78
2022/01/21 15:02:04;;;;;;;32.30;12.50;;;;;;;;;;5064487;28;20210;-78
2022/01/21 15:04:35;;;;;;;34.67;12.40;;;;;;;;;;5056653;28;20226;-77
2022/01/21 15:07:27;;;;;;;27.57;11.50;;;;;;;;;;5057778;28;20194;-78
2022/01/21 15:09:56;;;;;;;31.93;13.17;;;;;;;;;;5069254;28;20286;-77
2022/01/21 15:15:30;;;;;;;31.27;13.07;;;;;;;;;;5060397;28;20287;-78
2022/01/21 15:17:57;;;;;;;27.47;12.77;;;;;;;;;;5065357;28;20322;-78
2022/01/21 15:20:24;;;;;;;29.50;12.67;;;;;;;;;;5061233;28;20213;-78
2022/01/21 15:22:52;;;;;;;29.93;14.00;;;;;;;;;;5059118;28;20571;-78
2022/01/21 15:25:19;;;;;;;29.13;12.97;;;;;;;;;;5051764;28;20344;-78
2022/01/21 15:27:48;;;;;;;26.67;13.43;;;;;;;;;;5054999;28;20207;-77
2022/01/21 15:30:17;;;;;;;29.33;13.87;;;;;;;;;;5059192;28;20234;-79